createdAt,value
2024-01-12T00:01:32.948Z,19.30
2024-01-12T00:03:59.894Z,18.83
2024-01-12T00:06:28.743Z,19.40
2024-01-12T00:08:56.990Z,19.70
2024-01-12T00:11:24.237Z,19.17
2024-01-12T00:13:51.018Z,20.52
2024-01-12T00:16:22.072Z,19.27
2024-01-12T00:22:13.818Z,18.10
2024-01-12T00:24:40.745Z,20.55
2024-01-12T00:27:07.603Z,19.53
2024-01-12T00:29:35.217Z,18.80
2024-01-12T00:32:02.377Z,21.00
2024-01-12T00:34:32.311Z,18.35
2024-01-12T00:37:00.764Z,19.33
2024-01-12T00:39:34.200Z,19.25
2024-01-12T00:42:01.322Z,19.23
2024-01-12T00:44:28.424Z,20.02
2024-01-12T00:46:56.310Z,20.02
2024-01-12T00:49:23.359Z,20.13
2024-01-12T00:51:52.110Z,18.45
2024-01-12T00:54:21.498Z,20.45
2024-01-12T00:56:48.778Z,18.27
2024-01-12T00:59:15.810Z,16.67
2024-01-12T01:01:42.739Z,18.70
2024-01-12T01:04:09.963Z,19.83
2024-01-12T01:06:37.526Z,19.40
2024-01-12T01:09:05.322Z,19.92
2024-01-12T01:11:32.777Z,21.00
2024-01-12T01:14:00.027Z,21.60
2024-01-12T01:16:27.134Z,20.85
2024-01-12T01:18:54.011Z,22.00
2024-01-12T01:21:20.815Z,21.27
2024-01-12T01:23:47.615Z,21.70
2024-01-12T01:26:15.248Z,22.65
2024-01-12T01:28:43.105Z,20.98
2024-01-12T01:31:10.061Z,20.73
2024-01-12T01:33:37.423Z,18.67
2024-01-12T01:36:05.165Z,22.38
2024-01-12T01:38:31.850Z,23.23
2024-01-12T01:40:59.477Z,23.27
2024-01-12T01:43:26.832Z,21.83
2024-01-12T01:45:53.836Z,21.33
2024-01-12T01:48:21.102Z,24.65
2024-01-12T01:50:49.125Z,21.77
2024-01-12T01:53:17.006Z,23.20
2024-01-12T01:55:44.109Z,21.17
2024-01-12T01:58:11.266Z,22.30
2024-01-12T02:00:39.425Z,22.50
2024-01-12T02:03:07.777Z,21.55
2024-01-12T02:05:36.376Z,23.27
2024-01-12T02:08:03.862Z,22.13
2024-01-12T02:10:30.901Z,23.27
2024-01-12T02:12:57.584Z,22.65
2024-01-12T02:15:26.769Z,24.17
2024-01-12T02:17:53.690Z,23.30
2024-01-12T02:20:20.794Z,23.85
2024-01-12T02:22:47.818Z,25.35
2024-01-12T02:25:16.008Z,23.50
2024-01-12T02:27:42.993Z,23.45
2024-01-12T02:30:10.386Z,25.23
2024-01-12T02:32:37.351Z,24.55
2024-01-12T02:35:05.080Z,23.00
2024-01-12T02:37:32.208Z,25.02
2024-01-12T02:39:58.962Z,22.48
2024-01-12T02:42:26.008Z,23.67
2024-01-12T02:44:52.938Z,25.33
2024-01-12T02:47:20.424Z,24.13
2024-01-12T02:49:47.645Z,25.48
2024-01-12T02:52:15.345Z,24.25
2024-01-12T02:54:44.544Z,24.33
2024-01-12T02:57:13.622Z,24.35
2024-01-12T02:59:40.983Z,25.65
2024-01-12T03:02:07.759Z,26.48
2024-01-12T03:04:35.418Z,25.80
2024-01-12T03:07:05.283Z,22.98
2024-01-12T03:09:32.372Z,24.85
2024-01-12T03:11:59.642Z,25.10
2024-01-12T03:14:27.422Z,24.70
2024-01-12T03:16:55.612Z,22.02
2024-01-12T03:19:22.851Z,23.05
2024-01-12T03:21:50.128Z,24.20
2024-01-12T03:24:17.308Z,22.65
2024-01-12T03:26:44.081Z,24.50
2024-01-12T03:29:11.258Z,23.73
2024-01-12T03:31:38.821Z,23.35
2024-01-12T03:34:06.178Z,22.23
2024-01-12T03:36:33.382Z,26.60
2024-01-12T03:39:01.479Z,24.27
2024-01-12T03:41:29.149Z,24.73
2024-01-12T03:43:56.869Z,23.75
2024-01-12T03:46:24.889Z,22.85
2024-01-12T03:48:51.738Z,24.50
2024-01-12T03:51:18.893Z,22.30
2024-01-12T03:53:45.744Z,24.23
2024-01-12T03:56:15.672Z,22.38
2024-01-12T03:58:43.314Z,25.27
2024-01-12T04:01:11.246Z,25.48
2024-01-12T04:03:38.546Z,23.98
2024-01-12T04:06:12.064Z,25.92
2024-01-12T04:08:39.009Z,24.98
2024-01-12T04:11:07.009Z,24.52
2024-01-12T04:13:34.540Z,24.15
2024-01-12T04:16:01.591Z,24.88
2024-01-12T04:18:29.285Z,23.38
2024-01-12T04:20:56.220Z,23.15
2024-01-12T04:23:23.029Z,23.27
2024-01-12T04:25:50.315Z,22.42
2024-01-12T04:28:17.423Z,23.35
2024-01-12T04:30:44.386Z,23.35
2024-01-12T04:33:11.378Z,25.85
2024-01-12T04:35:38.502Z,25.90
2024-01-12T04:38:05.562Z,24.65
2024-01-12T04:40:33.032Z,23.35
2024-01-12T04:42:59.922Z,22.50
2024-01-12T04:45:27.121Z,24.65
2024-01-12T04:47:53.964Z,24.13
2024-01-12T04:50:21.409Z,23.85
2024-01-12T04:52:49.682Z,22.13
2024-01-12T04:55:17.176Z,23.10
2024-01-12T04:57:44.146Z,24.63
2024-01-12T05:00:11.956Z,23.50
2024-01-12T05:02:39.169Z,23.80
2024-01-12T05:05:06.702Z,23.60
2024-01-12T05:07:33.449Z,22.63
2024-01-12T05:10:00.302Z,22.30
2024-01-12T05:12:27.414Z,22.52
2024-01-12T05:14:54.203Z,23.67
2024-01-12T05:17:21.161Z,22.27
2024-01-12T05:19:48.234Z,23.92
2024-01-12T05:22:15.847Z,23.60
2024-01-12T05:24:42.787Z,22.38
2024-01-12T05:27:09.866Z,23.15
2024-01-12T05:29:36.808Z,22.60
2024-01-12T05:32:03.790Z,21.92
2024-01-12T05:34:30.692Z,21.80
2024-01-12T05:36:57.525Z,25.02
2024-01-12T05:39:24.674Z,22.90
2024-01-12T05:41:51.756Z,23.05
2024-01-12T05:44:18.632Z,21.70
2024-01-12T05:46:45.597Z,22.55
2024-01-12T05:49:12.647Z,22.30
2024-01-12T05:51:39.583Z,21.23
2024-01-12T05:54:06.741Z,22.50
2024-01-12T05:56:33.458Z,23.38
2024-01-12T05:59:00.723Z,21.13
2024-01-12T06:01:27.482Z,22.02
2024-01-12T06:03:54.687Z,21.92
2024-01-12T06:06:21.576Z,22.92
2024-01-12T06:08:49.267Z,20.85
2024-01-12T06:11:16.373Z,21.90
2024-01-12T06:13:43.496Z,22.13
2024-01-12T06:16:12.742Z,20.85
2024-01-12T06:18:39.753Z,20.67
2024-01-12T06:21:06.694Z,21.58
2024-01-12T06:23:33.563Z,20.67
2024-01-12T06:26:00.928Z,19.88
2024-01-12T06:28:27.745Z,20.40
2024-01-12T06:30:57.552Z,19.38
2024-01-12T06:33:25.175Z,19.92
2024-01-12T06:35:52.071Z,19.70
2024-01-12T06:38:18.964Z,20.35
2024-01-12T06:40:45.994Z,19.15
2024-01-12T06:43:13.345Z,19.42
2024-01-12T06:45:40.700Z,18.52
2024-01-12T06:48:07.671Z,17.38
2024-01-12T06:50:35.171Z,17.65
2024-01-12T06:53:05.439Z,17.52
2024-01-12T06:55:32.332Z,18.23
2024-01-12T06:57:59.309Z,19.15
2024-01-12T07:00:26.183Z,18.60
2024-01-12T07:02:53.340Z,16.38
2024-01-12T07:05:20.361Z,18.00
2024-01-12T07:07:47.893Z,13.38
2024-01-12T07:10:14.930Z,16.83
2024-01-12T07:12:41.705Z,17.27
2024-01-12T07:15:09.460Z,16.35
2024-01-12T07:17:36.847Z,16.23
2024-01-12T07:20:04.965Z,16.25
2024-01-12T07:22:32.235Z,15.48
2024-01-12T07:24:59.387Z,15.75
2024-01-12T07:27:26.858Z,16.20
2024-01-12T07:29:53.761Z,6.45
2024-01-12T07:32:20.808Z,6.82
2024-01-12T07:34:47.804Z,6.07
2024-01-12T07:37:14.926Z,9.00
2024-01-12T07:39:41.817Z,8.38
2024-01-12T07:42:08.944Z,9.40
2024-01-12T07:44:38.176Z,9.98
2024-01-12T07:47:05.145Z,8.98
2024-01-12T07:49:33.946Z,6.60
2024-01-12T07:52:00.833Z,6.15
2024-01-12T07:54:27.749Z,6.57
2024-01-12T07:56:55.396Z,7.93
2024-01-12T07:59:23.327Z,6.93
2024-01-12T08:01:56.183Z,6.70
2024-01-12T08:04:24.123Z,7.72
2024-01-12T08:06:51.464Z,6.60
2024-01-12T08:09:20.011Z,7.45
2024-01-12T08:14:29.021Z,8.70
2024-01-12T08:16:55.939Z,7.90
2024-01-12T08:19:23.390Z,7.88
2024-01-12T08:21:55.705Z,8.35
2024-01-12T08:24:23.706Z,8.63
2024-01-12T08:26:50.804Z,8.65
2024-01-12T08:29:19.548Z,8.48
2024-01-12T08:31:46.643Z,8.70
2024-01-12T08:34:13.849Z,9.18
2024-01-12T08:36:41.161Z,9.48
2024-01-12T08:39:08.465Z,8.95
2024-01-12T08:41:35.547Z,8.75
2024-01-12T08:44:03.509Z,8.77
2024-01-12T08:46:31.566Z,8.93
2024-01-12T08:49:00.109Z,7.90
2024-01-12T08:51:27.632Z,9.75
2024-01-12T08:53:54.913Z,8.93
2024-01-12T08:56:21.760Z,10.48
2024-01-12T08:58:48.794Z,10.55
2024-01-12T09:01:17.217Z,9.48
2024-01-12T09:03:44.342Z,11.43
2024-01-12T09:06:12.725Z,9.95
2024-01-12T09:08:39.833Z,10.55
2024-01-12T09:11:06.678Z,10.20
2024-01-12T09:13:33.541Z,10.98
2024-01-12T09:16:00.920Z,10.32
2024-01-12T09:18:27.813Z,10.43
2024-01-12T09:20:55.871Z,11.02
2024-01-12T09:23:23.087Z,10.25
2024-01-12T09:25:52.409Z,9.98
2024-01-12T09:28:19.995Z,11.15
2024-01-12T09:30:47.808Z,11.20
2024-01-12T09:33:17.815Z,10.48
2024-01-12T09:35:44.740Z,10.85
2024-01-12T09:38:12.059Z,11.35
2024-01-12T09:40:39.487Z,11.80
2024-01-12T09:43:12.584Z,10.77
2024-01-12T09:45:44.048Z,10.48
2024-01-12T09:48:11.273Z,11.07
2024-01-12T09:50:42.398Z,9.98
2024-01-12T09:53:09.523Z,11.02
2024-01-12T09:55:37.036Z,12.55
2024-01-12T09:58:05.535Z,11.02
2024-01-12T10:00:36.808Z,10.75
2024-01-12T10:03:06.025Z,10.38
2024-01-12T10:05:33.104Z,10.48
2024-01-12T10:08:00.071Z,11.02
2024-01-12T10:10:28.872Z,11.02
2024-01-12T10:12:56.383Z,11.50
2024-01-12T10:15:23.246Z,12.05
2024-01-12T10:17:51.217Z,9.85
2024-01-12T10:20:41.728Z,9.90
2024-01-12T10:23:29.672Z,10.10
2024-01-12T10:26:17.837Z,10.73
2024-01-12T10:28:45.863Z,10.40
2024-01-12T10:31:20.863Z,10.57
2024-01-12T10:33:51.051Z,9.60
2024-01-12T10:36:28.072Z,8.15
2024-01-12T10:39:02.755Z,9.57
2024-01-12T10:41:36.496Z,10.65
2024-01-12T10:44:05.870Z,9.95
2024-01-12T10:46:46.019Z,9.73
2024-01-12T10:49:21.404Z,10.98
2024-01-12T10:52:02.702Z,10.52
2024-01-12T10:54:35.032Z,11.35
2024-01-12T10:57:01.921Z,10.45
2024-01-12T10:59:28.856Z,11.30
2024-01-12T11:01:58.033Z,11.50
2024-01-12T11:04:28.178Z,11.90
2024-01-12T11:07:00.087Z,13.07
2024-01-12T11:09:28.350Z,11.65
2024-01-12T11:12:03.601Z,11.68
2024-01-12T11:14:33.403Z,11.65
2024-01-12T11:17:00.590Z,11.68
2024-01-12T11:19:29.350Z,11.65
2024-01-12T11:22:24.258Z,13.02
2024-01-12T11:24:53.094Z,12.30
2024-01-12T11:27:21.162Z,12.55
2024-01-12T11:29:56.746Z,13.02
2024-01-12T11:32:24.604Z,15.68
2024-01-12T11:34:57.210Z,12.52
2024-01-12T11:37:28.248Z,13.85
2024-01-12T11:39:56.994Z,19.30
2024-01-12T11:42:23.807Z,15.35
2024-01-12T11:44:50.755Z,14.25
2024-01-12T11:47:21.146Z,20.08
2024-01-12T11:49:48.569Z,14.10
2024-01-12T11:52:16.791Z,14.25
2024-01-12T11:54:43.486Z,15.07
2024-01-12T11:57:13.397Z,14.93
2024-01-12T11:59:40.618Z,13.60
2024-01-12T12:02:09.581Z,14.25
2024-01-12T12:04:38.501Z,12.90
2024-01-12T12:07:06.879Z,12.93
2024-01-12T12:09:33.945Z,11.25
2024-01-12T12:12:00.775Z,11.65
2024-01-12T12:14:29.788Z,13.15
2024-01-12T12:16:56.589Z,14.05
2024-01-12T12:19:24.969Z,15.82
2024-01-12T12:21:53.229Z,14.65
2024-01-12T12:24:21.534Z,15.88
2024-01-12T12:26:49.386Z,16.85
2024-01-12T12:29:20.198Z,14.68
2024-01-12T12:31:48.059Z,16.70
2024-01-12T12:34:18.684Z,15.65
2024-01-12T12:36:46.003Z,15.52
2024-01-12T12:39:13.120Z,16.58
2024-01-12T12:41:40.378Z,15.30
2024-01-12T12:44:07.361Z,17.13
2024-01-12T12:46:34.732Z,15.57
2024-01-12T12:49:01.755Z,17.55
2024-01-12T12:51:28.607Z,18.42
2024-01-12T12:53:56.603Z,17.67
2024-01-12T12:56:23.666Z,17.02
2024-01-12T12:58:52.210Z,17.08
2024-01-12T13:01:19.094Z,16.95
2024-01-12T13:03:45.963Z,17.25
2024-01-12T13:06:14.210Z,18.77
2024-01-12T13:08:41.062Z,20.63
2024-01-12T13:11:10.221Z,19.73
2024-01-12T13:13:37.263Z,22.20
2024-01-12T13:16:05.676Z,20.25
2024-01-12T13:18:34.747Z,21.15
2024-01-12T13:21:02.023Z,22.13
2024-01-12T13:23:30.042Z,22.42
2024-01-12T13:25:57.895Z,22.38
2024-01-12T13:31:07.441Z,23.20
2024-01-12T13:33:35.983Z,26.80
2024-01-12T13:36:06.310Z,23.58
2024-01-12T13:38:41.614Z,25.40
2024-01-12T13:41:09.554Z,21.67
2024-01-12T13:43:37.817Z,24.00
2024-01-12T13:46:06.556Z,23.58
2024-01-12T13:48:33.989Z,23.88
2024-01-12T13:51:01.604Z,23.88
2024-01-12T13:53:31.900Z,24.50
2024-01-12T13:55:58.800Z,22.15
2024-01-12T13:58:27.197Z,24.92
2024-01-12T14:00:54.247Z,23.83
2024-01-12T14:03:21.332Z,25.08
2024-01-12T14:05:49.288Z,23.13
2024-01-12T14:08:18.437Z,24.40
2024-01-12T14:11:19.462Z,25.58
2024-01-12T14:16:49.419Z,23.10
2024-01-12T14:22:03.704Z,22.67
2024-01-12T14:24:30.918Z,22.92
2024-01-12T14:26:57.730Z,23.13
2024-01-12T14:29:25.168Z,23.42
2024-01-12T14:31:53.090Z,24.05
2024-01-12T14:34:25.826Z,21.67
2024-01-12T14:36:53.089Z,21.77
2024-01-12T14:39:20.919Z,22.85
2024-01-12T14:41:49.330Z,21.73
2024-01-12T14:44:18.543Z,23.05
2024-01-12T14:46:45.486Z,23.70
2024-01-12T14:49:13.894Z,23.08
2024-01-12T14:51:43.474Z,21.80
2024-01-12T14:54:10.996Z,23.33
2024-01-12T14:56:38.419Z,24.13
2024-01-12T14:59:06.391Z,24.77
2024-01-12T15:01:34.135Z,23.92
2024-01-12T15:04:10.622Z,24.38
2024-01-12T15:06:46.484Z,22.33
2024-01-12T15:09:17.595Z,23.42
2024-01-12T15:11:49.064Z,23.38
2024-01-12T15:14:16.832Z,23.83
2024-01-12T15:16:44.723Z,23.00
2024-01-12T15:19:12.019Z,23.77
2024-01-12T15:21:40.921Z,23.77
2024-01-12T15:24:07.792Z,24.42
2024-01-12T15:26:34.836Z,25.38
2024-01-12T15:29:02.492Z,25.30
2024-01-12T15:31:29.546Z,24.67
2024-01-12T15:33:57.449Z,24.48
2024-01-12T15:36:24.783Z,27.52
2024-01-12T15:38:51.730Z,26.30
2024-01-12T15:41:18.876Z,24.15
2024-01-12T15:43:45.832Z,24.90
2024-01-12T15:46:15.278Z,23.05
2024-01-12T15:48:42.591Z,25.15
2024-01-12T15:51:16.608Z,26.00
2024-01-12T15:53:44.131Z,22.98
2024-01-12T15:56:11.247Z,24.70
2024-01-12T15:58:38.975Z,24.52
2024-01-12T16:01:10.477Z,23.63
2024-01-12T16:03:39.865Z,24.83
2024-01-12T16:06:08.672Z,24.10
2024-01-12T16:08:35.747Z,23.80
2024-01-12T16:11:02.558Z,23.80
2024-01-12T16:13:30.061Z,25.27
2024-01-12T16:15:57.249Z,23.05
2024-01-12T16:18:28.699Z,23.05
2024-01-12T16:20:56.680Z,22.40
2024-01-12T16:23:23.722Z,24.70
2024-01-12T16:25:51.318Z,24.02
2024-01-12T16:28:18.618Z,21.63
2024-01-12T16:30:45.916Z,23.98
2024-01-12T16:33:12.964Z,21.73
2024-01-12T16:35:41.075Z,23.27
2024-01-12T16:38:07.907Z,23.33
2024-01-12T16:40:34.618Z,23.20
2024-01-12T16:43:02.004Z,22.73
2024-01-12T16:45:29.122Z,21.27
2024-01-12T16:47:56.197Z,22.67
2024-01-12T16:50:23.493Z,22.35
2024-01-12T16:52:51.720Z,22.02
2024-01-12T16:55:18.490Z,20.98
2024-01-12T16:57:45.567Z,21.35
2024-01-12T17:00:13.344Z,19.40
2024-01-12T17:02:42.123Z,16.65
2024-01-12T17:05:10.792Z,20.02
2024-01-12T17:07:38.031Z,21.27
2024-01-12T17:10:05.512Z,24.83
2024-01-12T17:12:32.719Z,23.55
2024-01-12T17:15:00.080Z,21.58
2024-01-12T17:17:30.700Z,22.88
2024-01-12T17:19:59.805Z,23.77
2024-01-12T17:22:27.704Z,24.10
2024-01-12T17:27:42.804Z,24.58
2024-01-12T17:30:11.045Z,22.20
2024-01-12T17:32:38.133Z,24.55
2024-01-12T17:35:05.960Z,22.13
2024-01-12T17:37:33.110Z,23.40
2024-01-12T17:40:00.398Z,24.50
2024-01-12T17:42:29.021Z,21.20
2024-01-12T17:44:55.972Z,22.02
2024-01-12T17:47:22.976Z,23.15
2024-01-12T17:49:52.373Z,23.75
2024-01-12T17:52:21.711Z,24.88
2024-01-12T17:54:48.977Z,26.00
2024-01-12T17:57:17.209Z,25.17
2024-01-12T17:59:45.629Z,21.70
2024-01-12T18:02:12.557Z,21.63
2024-01-12T18:04:40.132Z,23.40
2024-01-12T18:07:07.047Z,24.30
2024-01-12T18:09:34.260Z,22.50
2024-01-12T18:12:05.685Z,21.58
2024-01-12T18:14:35.785Z,22.92
2024-01-12T18:17:02.860Z,23.33
2024-01-12T18:19:30.474Z,23.05
2024-01-12T18:21:58.135Z,22.08
2024-01-12T18:24:25.252Z,22.35
2024-01-12T18:26:54.898Z,22.05
2024-01-12T18:29:26.383Z,21.55
2024-01-12T18:31:54.994Z,23.23
2024-01-12T18:34:21.993Z,24.27
2024-01-12T18:36:49.092Z,22.92
2024-01-12T18:39:16.216Z,24.90
2024-01-12T18:41:43.523Z,24.58
2024-01-12T18:44:12.265Z,25.65
2024-01-12T18:46:39.501Z,24.92
2024-01-12T18:49:06.766Z,23.75
2024-01-12T18:51:47.383Z,26.00
2024-01-12T18:54:17.146Z,25.67
2024-01-12T18:56:44.317Z,18.38
2024-01-12T18:59:11.477Z,25.67
2024-01-12T19:01:38.660Z,26.75
2024-01-12T19:04:05.608Z,25.38
2024-01-12T19:06:36.031Z,28.00
2024-01-12T19:09:06.002Z,28.17
2024-01-12T19:11:34.106Z,27.40
2024-01-12T19:14:01.058Z,27.17
2024-01-12T19:16:29.047Z,26.10
2024-01-12T19:18:56.823Z,28.40
2024-01-12T19:21:23.949Z,26.23
2024-01-12T19:23:50.800Z,28.58
2024-01-12T19:26:17.803Z,25.45
2024-01-12T19:28:44.926Z,26.25
2024-01-12T19:31:23.516Z,25.80
2024-01-12T19:33:51.191Z,27.25
2024-01-12T19:36:19.467Z,28.00
2024-01-12T19:38:47.040Z,26.30
2024-01-12T19:41:30.220Z,27.33
2024-01-12T19:43:57.161Z,25.83
2024-01-12T19:46:24.206Z,29.42
2024-01-12T19:48:54.192Z,26.52
2024-01-12T19:51:23.191Z,29.02
2024-01-12T19:53:50.019Z,27.92
2024-01-12T19:56:17.493Z,27.45
2024-01-12T19:58:46.020Z,27.50
2024-01-12T20:01:13.154Z,28.70
2024-01-12T20:03:40.733Z,27.52
2024-01-12T20:06:07.749Z,29.20
2024-01-12T20:08:34.537Z,28.25
2024-01-12T20:11:03.240Z,28.17
2024-01-12T20:13:31.544Z,28.58
2024-01-12T20:15:58.500Z,29.35
2024-01-12T20:18:25.422Z,28.67
2024-01-12T20:20:54.191Z,28.05
2024-01-12T20:23:21.200Z,27.05
2024-01-12T20:25:48.771Z,28.65
2024-01-12T20:28:16.672Z,26.02
2024-01-12T20:30:44.242Z,30.85
2024-01-12T20:33:11.399Z,25.25
2024-01-12T20:35:38.722Z,28.45
2024-01-12T20:38:05.618Z,28.02
2024-01-12T20:40:32.704Z,29.23
2024-01-12T20:43:01.467Z,28.70
2024-01-12T20:45:28.469Z,25.75
2024-01-12T20:47:58.163Z,27.17
2024-01-12T20:50:26.045Z,28.17
2024-01-12T20:52:53.085Z,28.58
2024-01-12T20:55:19.933Z,28.33
2024-01-12T20:57:47.771Z,30.67
2024-01-12T21:00:17.375Z,28.48
2024-01-12T21:02:45.250Z,29.92
2024-01-12T21:05:12.912Z,28.52
2024-01-12T21:07:40.288Z,27.63
2024-01-12T21:10:08.162Z,29.52
2024-01-12T21:12:37.307Z,29.40
2024-01-12T21:15:05.161Z,28.02
2024-01-12T21:17:32.476Z,28.13
2024-01-12T21:19:59.734Z,26.70
2024-01-12T21:22:33.560Z,27.10
2024-01-12T21:25:05.266Z,27.75
2024-01-12T21:27:32.707Z,26.80
2024-01-12T21:30:00.455Z,28.42
2024-01-12T21:32:29.379Z,28.40
2024-01-12T21:34:57.679Z,27.35
2024-01-12T21:37:25.448Z,28.90
2024-01-12T21:39:52.577Z,27.48
2024-01-12T21:42:21.120Z,26.70
2024-01-12T21:44:48.451Z,27.77
2024-01-12T21:47:16.291Z,28.95
2024-01-12T21:49:43.466Z,28.90
2024-01-12T21:52:10.750Z,29.60
2024-01-12T21:54:37.588Z,27.25
2024-01-12T21:57:06.055Z,30.63
2024-01-12T21:59:35.226Z,28.33
2024-01-12T22:02:02.754Z,28.52
2024-01-12T22:04:30.022Z,29.20
2024-01-12T22:07:01.413Z,30.10
2024-01-12T22:09:29.421Z,27.92
2024-01-12T22:11:57.953Z,28.60
2024-01-12T22:14:25.011Z,29.95
2024-01-12T22:16:51.915Z,22.63
2024-01-12T22:19:18.978Z,25.77
2024-01-12T22:21:45.891Z,28.15
2024-01-12T22:24:14.129Z,26.30
2024-01-12T22:26:41.184Z,29.08
2024-01-12T22:29:08.543Z,27.90
2024-01-12T22:31:36.381Z,25.73
2024-01-12T22:34:04.461Z,24.83
2024-01-12T22:36:34.203Z,25.95
2024-01-12T22:39:05.532Z,26.75
2024-01-12T22:41:33.656Z,26.10
2024-01-12T22:44:01.618Z,27.08
2024-01-12T22:46:29.614Z,27.55
2024-01-12T22:48:56.521Z,28.00
2024-01-12T22:51:24.532Z,22.75
2024-01-12T22:53:51.446Z,24.08
2024-01-12T22:56:22.971Z,24.88
2024-01-12T22:58:51.078Z,26.27
2024-01-12T23:01:18.112Z,27.52
2024-01-12T23:03:46.703Z,26.55
2024-01-12T23:06:13.861Z,29.98
2024-01-12T23:08:40.747Z,25.77
2024-01-12T23:11:07.669Z,26.48
2024-01-12T23:13:34.805Z,29.08
2024-01-12T23:16:01.641Z,27.63
2024-01-12T23:18:28.747Z,26.95
2024-01-12T23:20:55.755Z,25.90
2024-01-12T23:23:22.528Z,27.38
2024-01-12T23:25:49.665Z,28.75
2024-01-12T23:28:18.584Z,26.45
2024-01-12T23:30:46.050Z,26.42
2024-01-12T23:33:13.179Z,28.48
2024-01-12T23:35:40.638Z,27.67
2024-01-12T23:38:09.568Z,27.67
2024-01-12T23:40:36.629Z,17.60
2024-01-12T23:43:03.484Z,25.63
2024-01-12T23:45:30.326Z,25.02
2024-01-12T23:47:57.901Z,26.17
2024-01-12T23:50:24.818Z,27.73
2024-01-12T23:52:53.200Z,29.60
2024-01-12T23:55:20.609Z,27.48
2024-01-12T23:57:47.350Z,27.88
